sensor_id;sensor_type;location;lat;lon;timestamp;temperature;humidity
22224;DHT22;11281;52.194;21.006;2022-09-09T00:03:50;12.00;99.90
22224;DHT22;11281;52.194;21.006;2022-09-09T00:08:33;11.90;99.90
22224;DHT22;11281;52.194;21.006;2022-09-09T00:13:42;11.90;99.90
22224;DHT22;11281;52.194;21.006;2022-09-09T00:18:26;11.80;99.90
22224;DHT22;11281;52.194;21.006;2022-09-09T00:27:40;11.80;99.90
22224;DHT22;11281;52.194;21.006;2022-09-09T00:32:16;11.70;99.90
22224;DHT22;11281;52.194;21.006;2022-09-09T00:36:41;11.70;99.90
22224;DHT22;11281;52.194;21.006;2022-09-09T00:50:55;11.60;99.90
22224;DHT22;11281;52.194;21.006;2022-09-09T01:00:29;11.50;99.90
22224;DHT22;11281;52.194;21.006;2022-09-09T01:04:51;11.60;99.90
22224;DHT22;11281;52.194;21.006;2022-09-09T01:09:32;11.60;99.90
22224;DHT22;11281;52.194;21.006;2022-09-09T01:18:54;11.60;99.90
22224;DHT22;11281;52.194;21.006;2022-09-09T01:23:42;11.60;99.90
22224;DHT22;11281;52.194;21.006;2022-09-09T01:28:13;11.60;99.90
22224;DHT22;11281;52.194;21.006;2022-09-09T01:32:44;11.60;99.90
22224;DHT22;11281;52.194;21.006;2022-09-09T01:37:17;11.60;99.90
22224;DHT22;11281;52.194;21.006;2022-09-09T01:41:38;11.60;99.90
22224;DHT22;11281;52.194;21.006;2022-09-09T01:46:01;11.70;99.90
22224;DHT22;11281;52.194;21.006;2022-09-09T01:50:23;11.60;99.90
22224;DHT22;11281;52.194;21.006;2022-09-09T01:54:45;11.70;99.90
22224;DHT22;11281;52.194;21.006;2022-09-09T01:59:33;11.70;99.90
22224;DHT22;11281;52.194;21.006;2022-09-09T02:04:36;11.70;99.90
22224;DHT22;11281;52.194;21.006;2022-09-09T02:09:24;11.70;99.90
22224;DHT22;11281;52.194;21.006;2022-09-09T02:13:48;11.60;99.90
22224;DHT22;11281;52.194;21.006;2022-09-09T02:18:18;11.60;99.90
22224;DHT22;11281;52.194;21.006;2022-09-09T02:22:57;11.70;99.90
22224;DHT22;11281;52.194;21.006;2022-09-09T02:27:20;11.70;99.90
22224;DHT22;11281;52.194;21.006;2022-09-09T02:31:44;11.60;99.90
22224;DHT22;11281;52.194;21.006;2022-09-09T02:36:09;11.60;99.90
22224;DHT22;11281;52.194;21.006;2022-09-09T02:40:32;11.60;99.90
22224;DHT22;11281;52.194;21.006;2022-09-09T02:44:54;11.60;99.90
22224;DHT22;11281;52.194;21.006;2022-09-09T02:49:35;11.60;99.90
22224;DHT22;11281;52.194;21.006;2022-09-09T02:54:30;11.60;99.90
22224;DHT22;11281;52.194;21.006;2022-09-09T02:58:53;11.60;99.90
22224;DHT22;11281;52.194;21.006;2022-09-09T03:03:16;11.60;99.90
22224;DHT22;11281;52.194;21.006;2022-09-09T03:07:39;11.60;99.90
22224;DHT22;11281;52.194;21.006;2022-09-09T03:12:01;11.60;99.90
22224;DHT22;11281;52.194;21.006;2022-09-09T03:16:25;11.60;99.90
22224;DHT22;11281;52.194;21.006;2022-09-09T03:20:47;11.60;99.90
22224;DHT22;11281;52.194;21.006;2022-09-09T03:25:12;11.60;99.90
22224;DHT22;11281;52.194;21.006;2022-09-09T03:29:34;11.60;99.90
22224;DHT22;11281;52.194;21.006;2022-09-09T03:33:57;11.60;99.90
22224;DHT22;11281;52.194;21.006;2022-09-09T03:38:19;11.60;99.90
22224;DHT22;11281;52.194;21.006;2022-09-09T03:42:41;11.60;99.90
22224;DHT22;11281;52.194;21.006;2022-09-09T03:47:02;11.70;99.90
22224;DHT22;11281;52.194;21.006;2022-09-09T03:51:24;11.70;99.90
22224;DHT22;11281;52.194;21.006;2022-09-09T03:55:47;11.60;99.90
22224;DHT22;11281;52.194;21.006;2022-09-09T04:00:15;11.60;99.90
22224;DHT22;11281;52.194;21.006;2022-09-09T04:04:37;11.60;99.90
22224;DHT22;11281;52.194;21.006;2022-09-09T04:08:59;11.70;99.90
22224;DHT22;11281;52.194;21.006;2022-09-09T04:13:24;11.70;99.90
22224;DHT22;11281;52.194;21.006;2022-09-09T04:17:46;11.70;99.90
22224;DHT22;11281;52.194;21.006;2022-09-09T04:22:08;11.70;99.90
22224;DHT22;11281;52.194;21.006;2022-09-09T04:26:30;11.70;99.90
22224;DHT22;11281;52.194;21.006;2022-09-09T04:30:52;11.70;99.90
22224;DHT22;11281;52.194;21.006;2022-09-09T04:35:14;11.70;99.90
22224;DHT22;11281;52.194;21.006;2022-09-09T04:39:36;11.70;99.90
22224;DHT22;11281;52.194;21.006;2022-09-09T04:43:58;11.70;99.90
22224;DHT22;11281;52.194;21.006;2022-09-09T04:48:21;11.60;99.90
22224;DHT22;11281;52.194;21.006;2022-09-09T04:52:42;11.70;99.90
22224;DHT22;11281;52.194;21.006;2022-09-09T04:57:04;11.70;99.90
22224;DHT22;11281;52.194;21.006;2022-09-09T05:01:26;11.70;99.90
22224;DHT22;11281;52.194;21.006;2022-09-09T05:05:48;11.70;99.90
22224;DHT22;11281;52.194;21.006;2022-09-09T05:10:10;11.70;99.90
22224;DHT22;11281;52.194;21.006;2022-09-09T05:14:32;11.80;99.90
22224;DHT22;11281;52.194;21.006;2022-09-09T05:18:53;11.80;99.90
22224;DHT22;11281;52.194;21.006;2022-09-09T05:23:15;11.80;99.90
22224;DHT22;11281;52.194;21.006;2022-09-09T05:27:37;11.80;99.90
22224;DHT22;11281;52.194;21.006;2022-09-09T05:31:59;11.80;99.90
22224;DHT22;11281;52.194;21.006;2022-09-09T05:36:22;11.80;99.90
22224;DHT22;11281;52.194;21.006;2022-09-09T05:40:47;11.90;99.90
22224;DHT22;11281;52.194;21.006;2022-09-09T05:45:10;11.80;99.90
22224;DHT22;11281;52.194;21.006;2022-09-09T05:49:32;11.80;99.90
22224;DHT22;11281;52.194;21.006;2022-09-09T05:53:54;11.80;99.90
22224;DHT22;11281;52.194;21.006;2022-09-09T05:58:17;11.80;99.90
22224;DHT22;11281;52.194;21.006;2022-09-09T06:02:39;11.90;99.90
22224;DHT22;11281;52.194;21.006;2022-09-09T06:07:02;12.00;99.90
22224;DHT22;11281;52.194;21.006;2022-09-09T06:11:26;11.90;99.90
22224;DHT22;11281;52.194;21.006;2022-09-09T06:15:52;12.00;99.90
22224;DHT22;11281;52.194;21.006;2022-09-09T06:20:14;11.90;99.90
22224;DHT22;11281;52.194;21.006;2022-09-09T06:24:35;11.90;99.90
22224;DHT22;11281;52.194;21.006;2022-09-09T06:28:59;11.90;99.90
22224;DHT22;11281;52.194;21.006;2022-09-09T06:33:21;12.00;99.90
22224;DHT22;11281;52.194;21.006;2022-09-09T06:37:46;12.00;99.90
22224;DHT22;11281;52.194;21.006;2022-09-09T06:42:10;12.00;99.90
22224;DHT22;11281;52.194;21.006;2022-09-09T06:46:31;12.10;99.90
22224;DHT22;11281;52.194;21.006;2022-09-09T06:51:05;12.10;99.90
22224;DHT22;11281;52.194;21.006;2022-09-09T06:55:27;12.20;99.90
22224;DHT22;11281;52.194;21.006;2022-09-09T06:59:49;12.20;99.90
22224;DHT22;11281;52.194;21.006;2022-09-09T07:04:11;12.20;99.90
22224;DHT22;11281;52.194;21.006;2022-09-09T07:08:34;12.30;99.90
22224;DHT22;11281;52.194;21.006;2022-09-09T07:12:56;12.40;99.90
22224;DHT22;11281;52.194;21.006;2022-09-09T07:17:17;12.40;99.90
22224;DHT22;11281;52.194;21.006;2022-09-09T07:21:39;12.50;99.90
22224;DHT22;11281;52.194;21.006;2022-09-09T07:26:02;12.50;99.90
22224;DHT22;11281;52.194;21.006;2022-09-09T07:30:28;12.50;99.90
22224;DHT22;11281;52.194;21.006;2022-09-09T07:34:50;12.50;99.90
22224;DHT22;11281;52.194;21.006;2022-09-09T07:39:13;12.50;99.90
22224;DHT22;11281;52.194;21.006;2022-09-09T07:43:35;12.60;99.90
22224;DHT22;11281;52.194;21.006;2022-09-09T07:47:56;12.70;99.90
22224;DHT22;11281;52.194;21.006;2022-09-09T07:52:18;12.70;99.90
22224;DHT22;11281;52.194;21.006;2022-09-09T07:56:41;12.70;99.90
22224;DHT22;11281;52.194;21.006;2022-09-09T08:01:12;12.70;99.90
22224;DHT22;11281;52.194;21.006;2022-09-09T08:05:36;12.70;99.90
22224;DHT22;11281;52.194;21.006;2022-09-09T08:09:57;12.80;99.90
22224;DHT22;11281;52.194;21.006;2022-09-09T08:14:20;12.80;99.90
22224;DHT22;11281;52.194;21.006;2022-09-09T08:18:41;12.90;99.90
22224;DHT22;11281;52.194;21.006;2022-09-09T08:23:03;13.00;99.90
22224;DHT22;11281;52.194;21.006;2022-09-09T08:27:26;13.00;99.90
22224;DHT22;11281;52.194;21.006;2022-09-09T08:31:50;13.00;99.90
22224;DHT22;11281;52.194;21.006;2022-09-09T08:36:17;12.90;99.90
22224;DHT22;11281;52.194;21.006;2022-09-09T08:40:44;13.00;99.90
22224;DHT22;11281;52.194;21.006;2022-09-09T08:45:15;13.00;99.90
22224;DHT22;11281;52.194;21.006;2022-09-09T08:54:13;13.00;99.90
22224;DHT22;11281;52.194;21.006;2022-09-09T08:58:43;13.10;99.90
22224;DHT22;11281;52.194;21.006;2022-09-09T09:08:25;13.30;99.90
22224;DHT22;11281;52.194;21.006;2022-09-09T09:12:59;13.10;99.90
22224;DHT22;11281;52.194;21.006;2022-09-09T09:17:25;13.30;99.90
22224;DHT22;11281;52.194;21.006;2022-09-09T09:22:06;13.30;99.90
22224;DHT22;11281;52.194;21.006;2022-09-09T09:26:43;13.30;99.90
22224;DHT22;11281;52.194;21.006;2022-09-09T09:31:07;13.30;99.90
22224;DHT22;11281;52.194;21.006;2022-09-09T09:35:31;13.50;99.90
22224;DHT22;11281;52.194;21.006;2022-09-09T09:39:52;13.50;99.90
22224;DHT22;11281;52.194;21.006;2022-09-09T09:44:27;13.40;99.90
22224;DHT22;11281;52.194;21.006;2022-09-09T09:49:05;13.60;99.90
22224;DHT22;11281;52.194;21.006;2022-09-09T09:53:31;13.70;99.90
22224;DHT22;11281;52.194;21.006;2022-09-09T09:58:06;13.70;99.90
22224;DHT22;11281;52.194;21.006;2022-09-09T10:02:42;13.70;99.90
22224;DHT22;11281;52.194;21.006;2022-09-09T10:07:31;13.70;99.90
22224;DHT22;11281;52.194;21.006;2022-09-09T10:41:03;13.70;99.90
22224;DHT22;11281;52.194;21.006;2022-09-09T10:45:45;13.70;99.90
22224;DHT22;11281;52.194;21.006;2022-09-09T10:55:15;13.80;99.90
22224;DHT22;11281;52.194;21.006;2022-09-09T10:59:48;13.70;99.90
22224;DHT22;11281;52.194;21.006;2022-09-09T11:08:43;13.80;99.90
22224;DHT22;11281;52.194;21.006;2022-09-09T11:13:14;13.80;99.90
22224;DHT22;11281;52.194;21.006;2022-09-09T11:17:47;13.80;99.90
22224;DHT22;11281;52.194;21.006;2022-09-09T11:22:31;13.80;99.90
22224;DHT22;11281;52.194;21.006;2022-09-09T11:27:23;13.70;99.90
22224;DHT22;11281;52.194;21.006;2022-09-09T11:41:36;13.70;99.90
22224;DHT22;11281;52.194;21.006;2022-09-09T11:46:01;13.80;99.90
22224;DHT22;11281;52.194;21.006;2022-09-09T11:54:48;13.90;99.90
22224;DHT22;11281;52.194;21.006;2022-09-09T12:08:26;13.80;99.90
22224;DHT22;11281;52.194;21.006;2022-09-09T12:12:49;13.90;99.90
22224;DHT22;11281;52.194;21.006;2022-09-09T12:17:24;14.00;99.90
22224;DHT22;11281;52.194;21.006;2022-09-09T12:27:17;14.00;99.90
22224;DHT22;11281;52.194;21.006;2022-09-09T12:32:06;13.80;99.90
22224;DHT22;11281;52.194;21.006;2022-09-09T12:36:31;13.80;99.90
22224;DHT22;11281;52.194;21.006;2022-09-09T12:40:56;13.80;99.90
22224;DHT22;11281;52.194;21.006;2022-09-09T12:45:30;13.80;99.90
22224;DHT22;11281;52.194;21.006;2022-09-09T12:49:53;14.00;99.90
22224;DHT22;11281;52.194;21.006;2022-09-09T12:54:17;14.00;99.90
22224;DHT22;11281;52.194;21.006;2022-09-09T12:58:45;13.90;99.90
22224;DHT22;11281;52.194;21.006;2022-09-09T13:03:18;13.90;99.90
22224;DHT22;11281;52.194;21.006;2022-09-09T13:07:42;13.70;99.90
22224;DHT22;11281;52.194;21.006;2022-09-09T13:12:05;13.70;99.90
22224;DHT22;11281;52.194;21.006;2022-09-09T13:16:31;13.70;99.90
22224;DHT22;11281;52.194;21.006;2022-09-09T13:20:54;13.90;99.90
22224;DHT22;11281;52.194;21.006;2022-09-09T13:25:26;14.00;99.90
22224;DHT22;11281;52.194;21.006;2022-09-09T13:29:53;14.20;99.90
22224;DHT22;11281;52.194;21.006;2022-09-09T13:34:33;14.30;99.90
22224;DHT22;11281;52.194;21.006;2022-09-09T13:39:00;14.30;99.90
22224;DHT22;11281;52.194;21.006;2022-09-09T13:43:26;14.10;99.90
22224;DHT22;11281;52.194;21.006;2022-09-09T13:47:49;14.00;99.90
22224;DHT22;11281;52.194;21.006;2022-09-09T13:52:16;13.90;99.90
22224;DHT22;11281;52.194;21.006;2022-09-09T13:56:39;13.90;99.90
22224;DHT22;11281;52.194;21.006;2022-09-09T14:01:02;13.90;99.90
22224;DHT22;11281;52.194;21.006;2022-09-09T14:05:24;14.10;99.90
22224;DHT22;11281;52.194;21.006;2022-09-09T14:09:46;14.30;99.90
22224;DHT22;11281;52.194;21.006;2022-09-09T14:14:13;14.20;99.90
22224;DHT22;11281;52.194;21.006;2022-09-09T14:18:35;14.00;99.90
22224;DHT22;11281;52.194;21.006;2022-09-09T14:22:56;14.00;99.90
22224;DHT22;11281;52.194;21.006;2022-09-09T14:27:19;13.90;99.90
22224;DHT22;11281;52.194;21.006;2022-09-09T14:31:41;13.80;99.90
22224;DHT22;11281;52.194;21.006;2022-09-09T14:36:03;13.90;99.90
22224;DHT22;11281;52.194;21.006;2022-09-09T14:40:25;13.90;99.90
22224;DHT22;11281;52.194;21.006;2022-09-09T14:44:47;13.90;99.90
22224;DHT22;11281;52.194;21.006;2022-09-09T14:49:09;14.00;99.90
22224;DHT22;11281;52.194;21.006;2022-09-09T14:53:34;14.10;99.90
22224;DHT22;11281;52.194;21.006;2022-09-09T14:57:56;14.20;99.90
22224;DHT22;11281;52.194;21.006;2022-09-09T15:02:17;14.10;99.90
22224;DHT22;11281;52.194;21.006;2022-09-09T15:06:39;14.10;99.90
22224;DHT22;11281;52.194;21.006;2022-09-09T15:11:05;14.10;99.90
22224;DHT22;11281;52.194;21.006;2022-09-09T15:15:28;14.00;99.90
22224;DHT22;11281;52.194;21.006;2022-09-09T15:19:50;14.00;99.90
22224;DHT22;11281;52.194;21.006;2022-09-09T15:24:12;14.00;99.90
22224;DHT22;11281;52.194;21.006;2022-09-09T15:28:36;13.90;99.90
22224;DHT22;11281;52.194;21.006;2022-09-09T15:32:59;13.90;99.90
22224;DHT22;11281;52.194;21.006;2022-09-09T15:37:20;13.90;99.90
22224;DHT22;11281;52.194;21.006;2022-09-09T15:41:46;13.80;99.90
22224;DHT22;11281;52.194;21.006;2022-09-09T15:46:36;13.90;99.90
22224;DHT22;11281;52.194;21.006;2022-09-09T15:51:03;13.80;99.90
22224;DHT22;11281;52.194;21.006;2022-09-09T15:55:25;13.70;99.90
22224;DHT22;11281;52.194;21.006;2022-09-09T15:59:47;13.70;99.90
22224;DHT22;11281;52.194;21.006;2022-09-09T16:04:09;13.70;99.90
22224;DHT22;11281;52.194;21.006;2022-09-09T16:08:36;13.70;99.90
22224;DHT22;11281;52.194;21.006;2022-09-09T16:12:59;13.70;99.90
22224;DHT22;11281;52.194;21.006;2022-09-09T16:17:20;13.80;99.90
22224;DHT22;11281;52.194;21.006;2022-09-09T16:21:47;13.90;99.90
22224;DHT22;11281;52.194;21.006;2022-09-09T16:26:14;13.80;99.90
22224;DHT22;11281;52.194;21.006;2022-09-09T16:30:37;13.70;99.90
22224;DHT22;11281;52.194;21.006;2022-09-09T16:34:58;13.70;99.90
22224;DHT22;11281;52.194;21.006;2022-09-09T16:39:20;13.60;99.90
22224;DHT22;11281;52.194;21.006;2022-09-09T16:43:42;13.60;99.90
22224;DHT22;11281;52.194;21.006;2022-09-09T16:48:04;13.50;99.90
22224;DHT22;11281;52.194;21.006;2022-09-09T16:52:26;13.50;99.90
22224;DHT22;11281;52.194;21.006;2022-09-09T16:56:48;13.50;99.90
22224;DHT22;11281;52.194;21.006;2022-09-09T17:01:10;13.40;99.90
22224;DHT22;11281;52.194;21.006;2022-09-09T17:05:39;13.40;99.90
22224;DHT22;11281;52.194;21.006;2022-09-09T17:10:02;13.40;99.90
22224;DHT22;11281;52.194;21.006;2022-09-09T17:14:24;13.40;99.90
22224;DHT22;11281;52.194;21.006;2022-09-09T17:18:45;13.30;99.90
22224;DHT22;11281;52.194;21.006;2022-09-09T17:23:11;13.30;99.90
22224;DHT22;11281;52.194;21.006;2022-09-09T17:27:36;13.30;99.90
22224;DHT22;11281;52.194;21.006;2022-09-09T17:31:58;13.30;99.90
22224;DHT22;11281;52.194;21.006;2022-09-09T17:36:22;13.30;99.90
22224;DHT22;11281;52.194;21.006;2022-09-09T17:40:48;13.30;99.90
22224;DHT22;11281;52.194;21.006;2022-09-09T17:45:10;13.30;99.90
22224;DHT22;11281;52.194;21.006;2022-09-09T17:49:32;13.30;99.90
22224;DHT22;11281;52.194;21.006;2022-09-09T17:53:56;13.30;99.90
22224;DHT22;11281;52.194;21.006;2022-09-09T17:58:20;13.30;99.90
22224;DHT22;11281;52.194;21.006;2022-09-09T18:02:42;13.20;99.90
22224;DHT22;11281;52.194;21.006;2022-09-09T18:07:04;13.20;99.90
22224;DHT22;11281;52.194;21.006;2022-09-09T18:11:29;13.20;99.90
22224;DHT22;11281;52.194;21.006;2022-09-09T18:15:52;13.10;99.90
22224;DHT22;11281;52.194;21.006;2022-09-09T18:20:14;13.10;99.90
22224;DHT22;11281;52.194;21.006;2022-09-09T18:24:37;13.10;99.90
22224;DHT22;11281;52.194;21.006;2022-09-09T18:29:02;13.10;99.90
22224;DHT22;11281;52.194;21.006;2022-09-09T18:33:26;13.00;99.90
22224;DHT22;11281;52.194;21.006;2022-09-09T18:37:47;13.00;99.90
22224;DHT22;11281;52.194;21.006;2022-09-09T18:42:09;13.00;99.90
22224;DHT22;11281;52.194;21.006;2022-09-09T18:46:34;13.00;99.90
22224;DHT22;11281;52.194;21.006;2022-09-09T18:51:04;13.00;99.90
22224;DHT22;11281;52.194;21.006;2022-09-09T18:55:27;13.00;99.90
22224;DHT22;11281;52.194;21.006;2022-09-09T18:59:49;13.00;99.90
22224;DHT22;11281;52.194;21.006;2022-09-09T19:04:15;12.90;99.90
22224;DHT22;11281;52.194;21.006;2022-09-09T19:08:41;13.00;99.90
22224;DHT22;11281;52.194;21.006;2022-09-09T19:13:04;12.90;99.90
22224;DHT22;11281;52.194;21.006;2022-09-09T19:17:25;13.00;99.90
22224;DHT22;11281;52.194;21.006;2022-09-09T19:21:49;13.00;99.90
22224;DHT22;11281;52.194;21.006;2022-09-09T19:26:13;12.90;99.90
22224;DHT22;11281;52.194;21.006;2022-09-09T19:30:37;12.90;99.90
22224;DHT22;11281;52.194;21.006;2022-09-09T19:34:59;12.90;99.90
22224;DHT22;11281;52.194;21.006;2022-09-09T19:39:22;12.90;99.90
22224;DHT22;11281;52.194;21.006;2022-09-09T19:43:45;12.90;99.90
22224;DHT22;11281;52.194;21.006;2022-09-09T19:48:07;12.90;99.90
22224;DHT22;11281;52.194;21.006;2022-09-09T19:52:29;12.90;99.90
22224;DHT22;11281;52.194;21.006;2022-09-09T19:56:51;12.90;99.90
22224;DHT22;11281;52.194;21.006;2022-09-09T20:05:40;12.90;99.90
22224;DHT22;11281;52.194;21.006;2022-09-09T20:10:02;12.90;99.90
22224;DHT22;11281;52.194;21.006;2022-09-09T20:14:24;12.90;99.90
22224;DHT22;11281;52.194;21.006;2022-09-09T20:18:51;12.90;99.90
22224;DHT22;11281;52.194;21.006;2022-09-09T20:23:15;12.90;99.90
22224;DHT22;11281;52.194;21.006;2022-09-09T20:27:38;12.90;99.90
22224;DHT22;11281;52.194;21.006;2022-09-09T20:32:00;12.80;99.90
22224;DHT22;11281;52.194;21.006;2022-09-09T20:36:25;12.80;99.90
22224;DHT22;11281;52.194;21.006;2022-09-09T20:40:49;12.90;99.90
22224;DHT22;11281;52.194;21.006;2022-09-09T20:45:11;12.90;99.90
22224;DHT22;11281;52.194;21.006;2022-09-09T20:49:36;12.80;99.90
22224;DHT22;11281;52.194;21.006;2022-09-09T20:54:03;12.80;99.90
22224;DHT22;11281;52.194;21.006;2022-09-09T20:58:26;12.80;99.90
22224;DHT22;11281;52.194;21.006;2022-09-09T21:02:48;12.80;99.90
22224;DHT22;11281;52.194;21.006;2022-09-09T21:07:10;12.80;99.90
22224;DHT22;11281;52.194;21.006;2022-09-09T21:11:32;12.80;99.90
22224;DHT22;11281;52.194;21.006;2022-09-09T21:15:55;12.80;99.90
22224;DHT22;11281;52.194;21.006;2022-09-09T21:20:17;12.80;99.90
22224;DHT22;11281;52.194;21.006;2022-09-09T21:24:39;12.80;99.90
22224;DHT22;11281;52.194;21.006;2022-09-09T21:29:01;12.70;99.90
22224;DHT22;11281;52.194;21.006;2022-09-09T21:33:24;12.70;99.90
22224;DHT22;11281;52.194;21.006;2022-09-09T21:37:48;12.70;99.90
22224;DHT22;11281;52.194;21.006;2022-09-09T21:42:10;12.70;99.90
22224;DHT22;11281;52.194;21.006;2022-09-09T21:46:31;12.70;99.90
22224;DHT22;11281;52.194;21.006;2022-09-09T21:50:53;12.70;99.90
22224;DHT22;11281;52.194;21.006;2022-09-09T21:55:15;12.70;99.90
22224;DHT22;11281;52.194;21.006;2022-09-09T21:59:37;12.70;99.90
22224;DHT22;11281;52.194;21.006;2022-09-09T22:03:59;12.70;99.90
22224;DHT22;11281;52.194;21.006;2022-09-09T22:08:21;12.70;99.90
22224;DHT22;11281;52.194;21.006;2022-09-09T22:12:43;12.80;99.90
22224;DHT22;11281;52.194;21.006;2022-09-09T22:17:05;12.70;99.90
22224;DHT22;11281;52.194;21.006;2022-09-09T22:21:30;12.70;99.90
22224;DHT22;11281;52.194;21.006;2022-09-09T22:25:53;12.70;99.90
22224;DHT22;11281;52.194;21.006;2022-09-09T22:30:15;12.70;99.90
22224;DHT22;11281;52.194;21.006;2022-09-09T22:34:37;12.70;99.90
22224;DHT22;11281;52.194;21.006;2022-09-09T22:39:00;12.70;99.90
22224;DHT22;11281;52.194;21.006;2022-09-09T22:43:22;12.70;99.90
22224;DHT22;11281;52.194;21.006;2022-09-09T22:47:44;12.60;99.90
22224;DHT22;11281;52.194;21.006;2022-09-09T22:52:06;12.60;99.90
22224;DHT22;11281;52.194;21.006;2022-09-09T22:56:30;12.60;99.90
22224;DHT22;11281;52.194;21.006;2022-09-09T23:00:52;12.50;99.90
22224;DHT22;11281;52.194;21.006;2022-09-09T23:05:13;12.60;99.90
22224;DHT22;11281;52.194;21.006;2022-09-09T23:09:35;12.50;99.90
22224;DHT22;11281;52.194;21.006;2022-09-09T23:14:00;12.50;99.90
22224;DHT22;11281;52.194;21.006;2022-09-09T23:18:22;12.50;99.90
22224;DHT22;11281;52.194;21.006;2022-09-09T23:22:46;12.50;99.90
22224;DHT22;11281;52.194;21.006;2022-09-09T23:27:08;12.50;99.90
22224;DHT22;11281;52.194;21.006;2022-09-09T23:31:32;12.40;99.90
22224;DHT22;11281;52.194;21.006;2022-09-09T23:35:59;12.40;99.90
22224;DHT22;11281;52.194;21.006;2022-09-09T23:40:21;12.40;99.90
22224;DHT22;11281;52.194;21.006;2022-09-09T23:44:43;12.40;99.90
22224;DHT22;11281;52.194;21.006;2022-09-09T23:49:06;12.40;99.90
22224;DHT22;11281;52.194;21.006;2022-09-09T23:53:29;12.30;99.90
22224;DHT22;11281;52.194;21.006;2022-09-09T23:57:51;12.40;99.90
